logo

United by the hobby
of model aircraft flying

Promoting safe
radio model flying

Sharing the experience
of RC flying

Dedicated to the sport of model aviation

Meeting
Venue

Third Monday Each Month
Crown Point Civic Center
101 S East Street
Crown Point, IN 46307

Read More

email:
[javascript protected email address]

View our events calendar

2020

Weather Conditions

Elev 730 ft    41.19°N  87.16°W

71.1 °F
100°
7 m/h
Wind Variable Wind from East

Current Conditions

Pressure 29.78 in
Visibility 10 miles
Clouds Clear
Dew Point 68.0 °F
Humidity 90 %
Rainfall 0.35 in
 
METAR KVPZ 100756Z AUTO 10006KT 10SM CLR 22/20 A2978 RMK AO2 LTG DSNT E AND SE RAE31 SLP078 P0001 T02170200

Forecast

INFORMATION PROVIDED BY THE INDIANA STATE FORECAST - NATIONAL WEATHER SERVICE
Sunrise & Sunset
July 10, 2020
4:3 AM

8:27 PM
High 85 | Low 68°F
July 11, 2020
4:3 AM

8:27 PM
High | Low °F
 

our gallery

View All